sensor_id;sensor_type;location;lat;lon;timestamp;P1;durP1;ratioP1;P2;durP2;ratioP2
53939;SDS011;39850;43.324;21.916;2024-02-04T00:27:09;78.0;;;58.0;;
53939;SDS011;39850;43.324;21.916;2024-02-04T00:31:45;78.0;;;58.0;;
53939;SDS011;39850;43.324;21.916;2024-02-04T00:36:21;80.0;;;60.0;;
53939;SDS011;39850;43.324;21.916;2024-02-04T00:40:57;80.0;;;60.0;;
53939;SDS011;39850;43.324;21.916;2024-02-04T00:45:33;82.0;;;62.0;;
53939;SDS011;39850;43.324;21.916;2024-02-04T00:50:10;82.0;;;62.0;;
53939;SDS011;39850;43.324;21.916;2024-02-04T00:54:46;84.0;;;63.0;;
53939;SDS011;39850;43.324;21.916;2024-02-04T00:59:22;84.0;;;63.0;;
53939;SDS011;39850;43.324;21.916;2024-02-04T01:03:58;85.0;;;64.0;;
53939;SDS011;39850;43.324;21.916;2024-02-04T01:08:34;85.0;;;64.0;;
53939;SDS011;39850;43.324;21.916;2024-02-04T01:13:11;85.0;;;64.0;;
53939;SDS011;39850;43.324;21.916;2024-02-04T01:45:25;83.0;;;60.0;;
53939;SDS011;39850;43.324;21.916;2024-02-04T01:50:05;83.0;;;60.0;;
53939;SDS011;39850;43.324;21.916;2024-02-04T01:54:44;75.0;;;56.0;;
53939;SDS011;39850;43.324;21.916;2024-02-04T01:59:24;75.0;;;56.0;;
53939;SDS011;39850;43.324;21.916;2024-02-04T02:04:02;78.0;;;58.0;;
53939;SDS011;39850;43.324;21.916;2024-02-04T02:08:42;78.0;;;58.0;;
53939;SDS011;39850;43.324;21.916;2024-02-04T02:13:34;78.0;;;58.0;;
53939;SDS011;39850;43.324;21.916;2024-02-04T02:18:38;72.0;;;55.0;;
53939;SDS011;39850;43.324;21.916;2024-02-04T02:23:47;72.0;;;55.0;;
53939;SDS011;39850;43.324;21.916;2024-02-04T02:29:02;78.0;;;58.0;;
53939;SDS011;39850;43.324;21.916;2024-02-04T02:33:39;78.0;;;58.0;;
53939;SDS011;39850;43.324;21.916;2024-02-04T03:06:37;47.0;;;37.0;;
53939;SDS011;39850;43.324;21.916;2024-02-04T03:11:13;47.0;;;37.0;;
53939;SDS011;39850;43.324;21.916;2024-02-04T03:15:50;50.0;;;40.0;;
53939;SDS011;39850;43.324;21.916;2024-02-04T03:20:26;50.0;;;40.0;;
53939;SDS011;39850;43.324;21.916;2024-02-04T03:25:05;52.0;;;40.0;;
53939;SDS011;39850;43.324;21.916;2024-02-04T03:29:42;52.0;;;40.0;;
53939;SDS011;39850;43.324;21.916;2024-02-04T03:34:18;53.0;;;41.0;;
53939;SDS011;39850;43.324;21.916;2024-02-04T03:38:54;53.0;;;41.0;;
53939;SDS011;39850;43.324;21.916;2024-02-04T03:43:30;53.0;;;41.0;;
53939;SDS011;39850;43.324;21.916;2024-02-04T03:48:07;52.0;;;40.0;;
53939;SDS011;39850;43.324;21.916;2024-02-04T03:52:43;52.0;;;40.0;;
53939;SDS011;39850;43.324;21.916;2024-02-04T04:24:59;57.0;;;46.0;;
53939;SDS011;39850;43.324;21.916;2024-02-04T04:29:36;57.0;;;46.0;;
53939;SDS011;39850;43.324;21.916;2024-02-04T04:34:12;57.0;;;46.0;;
53939;SDS011;39850;43.324;21.916;2024-02-04T04:38:49;58.0;;;46.0;;
53939;SDS011;39850;43.324;21.916;2024-02-04T04:43:25;58.0;;;46.0;;
53939;SDS011;39850;43.324;21.916;2024-02-04T04:48:04;58.0;;;46.0;;
53939;SDS011;39850;43.324;21.916;2024-02-04T04:52:42;58.0;;;46.0;;
53939;SDS011;39850;43.324;21.916;2024-02-04T04:57:19;58.0;;;46.0;;
53939;SDS011;39850;43.324;21.916;2024-02-04T05:01:56;58.0;;;46.0;;
53939;SDS011;39850;43.324;21.916;2024-02-04T05:06:33;59.0;;;47.0;;
53939;SDS011;39850;43.324;21.916;2024-02-04T05:11:09;59.0;;;47.0;;
53939;SDS011;39850;43.324;21.916;2024-02-04T05:48:01;68.0;;;53.0;;
53939;SDS011;39850;43.324;21.916;2024-02-04T05:52:38;68.0;;;53.0;;
53939;SDS011;39850;43.324;21.916;2024-02-04T05:57:14;56.0;;;44.0;;
53939;SDS011;39850;43.324;21.916;2024-02-04T06:01:50;56.0;;;44.0;;
53939;SDS011;39850;43.324;21.916;2024-02-04T06:06:26;44.0;;;36.0;;
53939;SDS011;39850;43.324;21.916;2024-02-04T06:11:03;44.0;;;36.0;;
53939;SDS011;39850;43.324;21.916;2024-02-04T06:15:39;44.0;;;36.0;;
53939;SDS011;39850;43.324;21.916;2024-02-04T06:20:15;44.0;;;36.0;;
53939;SDS011;39850;43.324;21.916;2024-02-04T06:24:52;44.0;;;36.0;;
53939;SDS011;39850;43.324;21.916;2024-02-04T06:29:28;44.0;;;36.0;;
53939;SDS011;39850;43.324;21.916;2024-02-04T06:34:04;44.0;;;36.0;;
53939;SDS011;39850;43.324;21.916;2024-02-04T07:06:23;40.0;;;35.0;;
53939;SDS011;39850;43.324;21.916;2024-02-04T07:11:00;40.0;;;35.0;;
53939;SDS011;39850;43.324;21.916;2024-02-04T07:15:36;37.0;;;32.0;;
53939;SDS011;39850;43.324;21.916;2024-02-04T07:20:13;37.0;;;32.0;;
53939;SDS011;39850;43.324;21.916;2024-02-04T07:24:50;37.0;;;32.0;;
53939;SDS011;39850;43.324;21.916;2024-02-04T07:29:26;34.0;;;29.0;;
53939;SDS011;39850;43.324;21.916;2024-02-04T07:34:03;34.0;;;29.0;;
53939;SDS011;39850;43.324;21.916;2024-02-04T07:38:40;34.0;;;29.0;;
53939;SDS011;39850;43.324;21.916;2024-02-04T07:43:17;34.0;;;29.0;;
53939;SDS011;39850;43.324;21.916;2024-02-04T07:47:54;34.0;;;29.0;;
53939;SDS011;39850;43.324;21.916;2024-02-04T07:52:30;34.0;;;29.0;;
53939;SDS011;39850;43.324;21.916;2024-02-04T08:47:55;65.0;;;52.0;;
53939;SDS011;39850;43.324;21.916;2024-02-04T08:52:31;65.0;;;52.0;;
53939;SDS011;39850;43.324;21.916;2024-02-04T08:57:08;65.0;;;52.0;;
53939;SDS011;39850;43.324;21.916;2024-02-04T09:01:44;65.0;;;52.0;;
53939;SDS011;39850;43.324;21.916;2024-02-04T09:06:21;65.0;;;52.0;;
53939;SDS011;39850;43.324;21.916;2024-02-04T09:10:57;65.0;;;52.0;;
53939;SDS011;39850;43.324;21.916;2024-02-04T09:47:54;50.0;;;43.0;;
53939;SDS011;39850;43.324;21.916;2024-02-04T09:52:49;50.0;;;43.0;;
53939;SDS011;39850;43.324;21.916;2024-02-04T09:57:29;50.0;;;42.0;;
53939;SDS011;39850;43.324;21.916;2024-02-04T10:02:09;50.0;;;42.0;;
53939;SDS011;39850;43.324;21.916;2024-02-04T10:06:46;50.0;;;43.0;;
53939;SDS011;39850;43.324;21.916;2024-02-04T10:11:23;50.0;;;43.0;;
53939;SDS011;39850;43.324;21.916;2024-02-04T10:16:00;50.0;;;42.0;;
53939;SDS011;39850;43.324;21.916;2024-02-04T10:20:37;50.0;;;42.0;;
53939;SDS011;39850;43.324;21.916;2024-02-04T10:25:13;50.0;;;42.0;;
53939;SDS011;39850;43.324;21.916;2024-02-04T10:29:50;51.0;;;43.0;;
53939;SDS011;39850;43.324;21.916;2024-02-04T10:34:28;51.0;;;43.0;;
53939;SDS011;39850;43.324;21.916;2024-02-04T11:07:17;53.0;;;45.0;;
53939;SDS011;39850;43.324;21.916;2024-02-04T11:12:08;53.0;;;45.0;;
53939;SDS011;39850;43.324;21.916;2024-02-04T11:17:57;52.0;;;44.0;;
53939;SDS011;39850;43.324;21.916;2024-02-04T11:23:37;52.0;;;44.0;;
53939;SDS011;39850;43.324;21.916;2024-02-04T11:28:27;52.0;;;44.0;;
53939;SDS011;39850;43.324;21.916;2024-02-04T11:33:07;52.0;;;44.0;;
53939;SDS011;39850;43.324;21.916;2024-02-04T11:37:43;52.0;;;44.0;;
53939;SDS011;39850;43.324;21.916;2024-02-04T11:42:24;52.0;;;44.0;;
53939;SDS011;39850;43.324;21.916;2024-02-04T11:47:07;52.0;;;44.0;;
53939;SDS011;39850;43.324;21.916;2024-02-04T11:51:47;52.0;;;44.0;;
53939;SDS011;39850;43.324;21.916;2024-02-04T12:28:44;31.0;;;28.0;;
53939;SDS011;39850;43.324;21.916;2024-02-04T12:33:21;31.0;;;28.0;;
53939;SDS011;39850;43.324;21.916;2024-02-04T12:38:00;32.0;;;29.0;;
53939;SDS011;39850;43.324;21.916;2024-02-04T12:42:37;32.0;;;29.0;;
53939;SDS011;39850;43.324;21.916;2024-02-04T12:47:19;31.0;;;28.0;;
53939;SDS011;39850;43.324;21.916;2024-02-04T12:52:07;31.0;;;28.0;;
53939;SDS011;39850;43.324;21.916;2024-02-04T12:56:52;31.0;;;27.0;;
53939;SDS011;39850;43.324;21.916;2024-02-04T13:01:30;31.0;;;27.0;;
53939;SDS011;39850;43.324;21.916;2024-02-04T13:06:07;31.0;;;27.0;;
53939;SDS011;39850;43.324;21.916;2024-02-04T13:10:54;28.0;;;24.0;;
53939;SDS011;39850;43.324;21.916;2024-02-04T13:15:39;28.0;;;24.0;;
53939;SDS011;39850;43.324;21.916;2024-02-04T13:47:52;11.0;;;9.0;;
53939;SDS011;39850;43.324;21.916;2024-02-04T13:52:29;11.0;;;9.0;;
53939;SDS011;39850;43.324;21.916;2024-02-04T13:57:05;12.0;;;9.0;;
53939;SDS011;39850;43.324;21.916;2024-02-04T14:01:42;12.0;;;9.0;;
53939;SDS011;39850;43.324;21.916;2024-02-04T14:06:19;12.0;;;9.0;;
53939;SDS011;39850;43.324;21.916;2024-02-04T14:10:55;13.0;;;9.0;;
53939;SDS011;39850;43.324;21.916;2024-02-04T14:15:31;13.0;;;9.0;;
53939;SDS011;39850;43.324;21.916;2024-02-04T14:20:10;13.0;;;10.0;;
53939;SDS011;39850;43.324;21.916;2024-02-04T14:24:47;13.0;;;10.0;;
53939;SDS011;39850;43.324;21.916;2024-02-04T14:29:23;13.0;;;11.0;;
53939;SDS011;39850;43.324;21.916;2024-02-04T14:33:59;13.0;;;11.0;;
53939;SDS011;39850;43.324;21.916;2024-02-04T15:10:49;16.0;;;13.0;;
53939;SDS011;39850;43.324;21.916;2024-02-04T15:15:29;16.0;;;13.0;;
53939;SDS011;39850;43.324;21.916;2024-02-04T15:20:10;16.0;;;13.0;;
53939;SDS011;39850;43.324;21.916;2024-02-04T15:24:51;16.0;;;13.0;;
53939;SDS011;39850;43.324;21.916;2024-02-04T15:29:33;17.0;;;13.0;;
53939;SDS011;39850;43.324;21.916;2024-02-04T15:34:15;17.0;;;13.0;;
53939;SDS011;39850;43.324;21.916;2024-02-04T15:38:52;18.0;;;14.0;;
53939;SDS011;39850;43.324;21.916;2024-02-04T15:43:28;18.0;;;14.0;;
53939;SDS011;39850;43.324;21.916;2024-02-04T15:48:15;19.0;;;15.0;;
53939;SDS011;39850;43.324;21.916;2024-02-04T15:53:01;19.0;;;15.0;;
53939;SDS011;39850;43.324;21.916;2024-02-04T16:30:51;65.0;;;52.0;;
53939;SDS011;39850;43.324;21.916;2024-02-04T16:35:27;65.0;;;52.0;;
53939;SDS011;39850;43.324;21.916;2024-02-04T16:40:08;68.0;;;52.0;;
53939;SDS011;39850;43.324;21.916;2024-02-04T16:44:46;68.0;;;52.0;;
53939;SDS011;39850;43.324;21.916;2024-02-04T16:49:25;70.0;;;53.0;;
53939;SDS011;39850;43.324;21.916;2024-02-04T16:54:03;70.0;;;53.0;;
53939;SDS011;39850;43.324;21.916;2024-02-04T16:58:40;102.0;;;74.0;;
53939;SDS011;39850;43.324;21.916;2024-02-04T17:03:18;102.0;;;74.0;;
53939;SDS011;39850;43.324;21.916;2024-02-04T17:07:57;134.0;;;94.0;;
53939;SDS011;39850;43.324;21.916;2024-02-04T17:12:36;134.0;;;94.0;;
53939;SDS011;39850;43.324;21.916;2024-02-04T17:49:46;179.0;;;130.0;;
53939;SDS011;39850;43.324;21.916;2024-02-04T17:54:22;179.0;;;130.0;;
53939;SDS011;39850;43.324;21.916;2024-02-04T17:58:58;192.0;;;138.0;;
53939;SDS011;39850;43.324;21.916;2024-02-04T18:03:34;192.0;;;138.0;;
53939;SDS011;39850;43.324;21.916;2024-02-04T18:08:11;205.0;;;145.0;;
53939;SDS011;39850;43.324;21.916;2024-02-04T18:12:48;205.0;;;145.0;;
53939;SDS011;39850;43.324;21.916;2024-02-04T18:17:25;211.0;;;150.0;;
53939;SDS011;39850;43.324;21.916;2024-02-04T18:22:03;211.0;;;150.0;;
53939;SDS011;39850;43.324;21.916;2024-02-04T18:26:40;211.0;;;150.0;;
53939;SDS011;39850;43.324;21.916;2024-02-04T18:31:17;217.0;;;154.0;;
53939;SDS011;39850;43.324;21.916;2024-02-04T18:35:54;217.0;;;154.0;;
53939;SDS011;39850;43.324;21.916;2024-02-04T19:08:07;271.0;;;188.0;;
53939;SDS011;39850;43.324;21.916;2024-02-04T19:12:44;271.0;;;188.0;;
53939;SDS011;39850;43.324;21.916;2024-02-04T19:17:20;271.0;;;188.0;;
53939;SDS011;39850;43.324;21.916;2024-02-04T19:21:56;194.0;;;136.0;;
53939;SDS011;39850;43.324;21.916;2024-02-04T19:26:32;194.0;;;136.0;;
53939;SDS011;39850;43.324;21.916;2024-02-04T19:31:09;139.0;;;103.0;;
53939;SDS011;39850;43.324;21.916;2024-02-04T19:35:45;139.0;;;103.0;;
53939;SDS011;39850;43.324;21.916;2024-02-04T19:40:23;128.0;;;94.0;;
53939;SDS011;39850;43.324;21.916;2024-02-04T19:44:59;128.0;;;94.0;;
53939;SDS011;39850;43.324;21.916;2024-02-04T19:49:35;139.0;;;103.0;;
53939;SDS011;39850;43.324;21.916;2024-02-04T19:54:12;139.0;;;103.0;;
53939;SDS011;39850;43.324;21.916;2024-02-04T20:31:00;126.0;;;97.0;;
53939;SDS011;39850;43.324;21.916;2024-02-04T20:35:36;126.0;;;97.0;;
53939;SDS011;39850;43.324;21.916;2024-02-04T20:40:14;138.0;;;107.0;;
53939;SDS011;39850;43.324;21.916;2024-02-04T20:44:50;138.0;;;107.0;;
53939;SDS011;39850;43.324;21.916;2024-02-04T20:49:27;151.0;;;117.0;;
53939;SDS011;39850;43.324;21.916;2024-02-04T20:54:06;151.0;;;117.0;;
53939;SDS011;39850;43.324;21.916;2024-02-04T20:58:43;179.0;;;135.0;;
53939;SDS011;39850;43.324;21.916;2024-02-04T21:03:19;179.0;;;135.0;;
53939;SDS011;39850;43.324;21.916;2024-02-04T21:07:56;207.0;;;153.0;;
53939;SDS011;39850;43.324;21.916;2024-02-04T21:12:33;207.0;;;153.0;;
53939;SDS011;39850;43.324;21.916;2024-02-04T21:17:09;207.0;;;153.0;;
53939;SDS011;39850;43.324;21.916;2024-02-04T21:49:25;75.0;;;61.0;;
53939;SDS011;39850;43.324;21.916;2024-02-04T21:54:01;75.0;;;61.0;;
53939;SDS011;39850;43.324;21.916;2024-02-04T21:58:37;66.0;;;54.0;;
53939;SDS011;39850;43.324;21.916;2024-02-04T22:03:13;66.0;;;54.0;;
53939;SDS011;39850;43.324;21.916;2024-02-04T22:07:50;66.0;;;54.0;;
53939;SDS011;39850;43.324;21.916;2024-02-04T22:12:26;69.0;;;56.0;;
53939;SDS011;39850;43.324;21.916;2024-02-04T22:17:03;69.0;;;56.0;;
53939;SDS011;39850;43.324;21.916;2024-02-04T22:21:40;62.0;;;52.0;;
53939;SDS011;39850;43.324;21.916;2024-02-04T22:26:16;62.0;;;52.0;;
53939;SDS011;39850;43.324;21.916;2024-02-04T22:30:52;69.0;;;56.0;;
53939;SDS011;39850;43.324;21.916;2024-02-04T22:35:29;69.0;;;56.0;;
53939;SDS011;39850;43.324;21.916;2024-02-04T23:12:24;105.0;;;81.0;;
53939;SDS011;39850;43.324;21.916;2024-02-04T23:17:00;105.0;;;81.0;;
53939;SDS011;39850;43.324;21.916;2024-02-04T23:21:37;108.0;;;84.0;;
53939;SDS011;39850;43.324;21.916;2024-02-04T23:26:15;108.0;;;84.0;;
53939;SDS011;39850;43.324;21.916;2024-02-04T23:30:53;112.0;;;88.0;;
53939;SDS011;39850;43.324;21.916;2024-02-04T23:35:29;112.0;;;88.0;;
53939;SDS011;39850;43.324;21.916;2024-02-04T23:40:12;128.0;;;97.0;;
53939;SDS011;39850;43.324;21.916;2024-02-04T23:44:49;128.0;;;97.0;;
53939;SDS011;39850;43.324;21.916;2024-02-04T23:49:26;145.0;;;106.0;;
53939;SDS011;39850;43.324;21.916;2024-02-04T23:54:03;145.0;;;106.0;;
